createdAt,value
2019-01-06T00:00:46.529Z,1.69
2019-01-06T00:03:43.153Z,1.58
2019-01-06T00:06:36.714Z,1.48
2019-01-06T00:09:28.424Z,1.44
2019-01-06T00:12:18.414Z,1.40
2019-01-06T00:15:09.418Z,1.30
2019-01-06T00:17:58.675Z,1.18
2019-01-06T00:20:49.180Z,1.07
2019-01-06T00:23:38.788Z,0.95
2019-01-06T00:26:35.487Z,0.81
2019-01-06T00:29:35.160Z,0.77
2019-01-06T00:32:31.782Z,0.67
2019-01-06T00:35:20.975Z,0.62
2019-01-06T00:38:17.467Z,0.71
2019-01-06T00:41:08.368Z,0.77
2019-01-06T00:44:17.376Z,0.69
2019-01-06T00:47:08.073Z,0.50
2019-01-06T00:49:54.510Z,0.34
2019-01-06T00:52:47.943Z,0.17
2019-01-06T00:55:37.809Z,0.01
2019-01-06T00:58:28.699Z,-0.17
2019-01-06T01:01:37.313Z,-0.28
2019-01-06T01:04:30.875Z,-0.47
2019-01-06T01:07:20.336Z,-0.59
2019-01-06T01:10:09.842Z,-0.63
2019-01-06T01:12:56.638Z,-0.74
2019-01-06T01:15:46.298Z,-0.97
2019-01-06T01:18:34.143Z,-1.15
2019-01-06T01:21:23.808Z,-1.23
2019-01-06T01:24:14.307Z,-1.26
2019-01-06T01:27:04.760Z,-1.26
2019-01-06T01:30:10.629Z,-1.18
2019-01-06T01:33:01.791Z,-1.07
2019-01-06T01:36:01.214Z,-1.04
2019-01-06T01:38:50.490Z,-1.07
2019-01-06T01:42:09.006Z,-1.07
2019-01-06T01:44:58.259Z,-1.03
2019-01-06T01:47:57.657Z,-1.07
2019-01-06T01:51:00.404Z,-1.04
2019-01-06T01:53:50.914Z,-1.00
2019-01-06T01:56:41.179Z,-1.13
2019-01-06T01:59:30.463Z,-1.15
2019-01-06T02:02:19.630Z,-1.22
2019-01-06T02:05:22.085Z,-1.22
2019-01-06T02:08:15.357Z,-1.30
2019-01-06T02:11:04.383Z,-1.44
2019-01-06T02:13:57.836Z,-1.56
2019-01-06T02:16:55.922Z,-1.52
2019-01-06T02:19:46.808Z,-1.62
2019-01-06T02:22:36.051Z,-1.68
2019-01-06T02:25:25.456Z,-1.74
2019-01-06T02:28:25.210Z,-1.86
2019-01-06T02:31:15.645Z,-1.97
2019-01-06T02:34:30.140Z,-2.02
2019-01-06T02:37:23.396Z,-2.09
2019-01-06T02:40:13.695Z,-2.15
2019-01-06T02:43:03.063Z,-2.18
2019-01-06T02:46:08.931Z,-2.24
2019-01-06T02:48:59.383Z,-2.23
2019-01-06T02:51:48.747Z,-2.23
2019-01-06T02:54:49.509Z,-2.21
2019-01-06T02:57:38.119Z,-2.24
2019-01-06T03:00:44.883Z,-2.26
2019-01-06T03:03:38.231Z,-2.26
2019-01-06T03:06:27.545Z,-2.34
2019-01-06T03:09:16.067Z,-2.45
2019-01-06T03:12:04.515Z,-2.54
2019-01-06T03:14:58.036Z,-2.70
2019-01-06T03:17:52.137Z,-2.85
2019-01-06T03:20:41.700Z,-2.94
2019-01-06T03:23:31.487Z,-2.93
2019-01-06T03:26:41.306Z,-2.95
2019-01-06T03:29:40.202Z,-3.03
2019-01-06T03:32:48.868Z,-3.08
2019-01-06T03:35:51.563Z,-3.08
2019-01-06T03:38:35.840Z,-3.01
2019-01-06T03:41:26.398Z,-2.99
2019-01-06T03:44:22.892Z,-2.95
2019-01-06T03:47:12.081Z,-2.96
2019-01-06T03:50:08.895Z,-2.96
2019-01-06T03:53:02.451Z,-3.01
2019-01-06T03:56:00.810Z,-3.09
2019-01-06T03:58:51.224Z,-3.11
2019-01-06T04:01:34.355Z,-3.09
2019-01-06T04:04:23.346Z,-3.22
2019-01-06T04:07:12.376Z,-3.27
2019-01-06T04:10:14.925Z,-3.39
2019-01-06T04:13:04.087Z,-3.44
2019-01-06T04:16:03.581Z,-3.41
2019-01-06T04:19:02.874Z,-3.41
2019-01-06T04:22:02.077Z,-3.38
2019-01-06T04:25:07.583Z,-3.26
2019-01-06T04:27:56.371Z,-3.20
2019-01-06T04:30:48.538Z,-3.21
2019-01-06T04:33:37.826Z,-3.08
2019-01-06T04:36:46.841Z,-3.02
2019-01-06T04:39:37.240Z,-3.16
2019-01-06T04:42:33.653Z,-3.26
2019-01-06T04:45:22.697Z,-3.31
2019-01-06T04:48:18.206Z,-3.28
2019-01-06T04:51:07.281Z,-3.16
2019-01-06T04:53:57.873Z,-3.09
2019-01-06T04:56:47.143Z,-3.08
2019-01-06T04:59:36.852Z,-3.04
2019-01-06T05:02:30.573Z,-3.03
2019-01-06T05:05:18.847Z,-3.02
2019-01-06T05:08:06.754Z,-3.02
2019-01-06T05:10:56.227Z,-2.88
2019-01-06T05:13:52.844Z,-2.88
2019-01-06T05:16:52.359Z,-2.99
2019-01-06T05:19:48.791Z,-3.07
2019-01-06T05:22:39.255Z,-2.87
2019-01-06T05:25:38.761Z,-2.87
2019-01-06T05:28:27.818Z,-3.09
2019-01-06T05:31:33.474Z,-3.25
2019-01-06T05:34:22.189Z,-3.35
2019-01-06T05:37:11.460Z,-3.43
2019-01-06T05:40:02.575Z,-3.34
2019-01-06T05:42:51.915Z,-3.25
2019-01-06T05:45:51.533Z,-3.20
2019-01-06T05:48:40.417Z,-3.13
2019-01-06T05:51:43.140Z,-3.14
2019-01-06T05:54:48.675Z,-3.16
2019-01-06T05:57:38.135Z,-3.19
2019-01-06T06:00:40.788Z,-3.18
2019-01-06T06:03:36.618Z,-3.11
2019-01-06T06:06:35.715Z,-3.09
2019-01-06T06:09:41.615Z,-3.08
2019-01-06T06:12:37.744Z,-3.12
2019-01-06T06:15:40.211Z,-3.13
2019-01-06T06:18:30.090Z,-3.18
2019-01-06T06:21:20.462Z,-3.17
2019-01-06T06:24:09.836Z,-3.19
2019-01-06T06:27:15.876Z,-3.28
2019-01-06T06:30:09.322Z,-3.34
2019-01-06T06:32:55.844Z,-3.37
2019-01-06T06:36:01.575Z,-3.44
2019-01-06T06:38:50.929Z,-3.47
2019-01-06T06:41:50.474Z,-3.51
2019-01-06T06:44:36.130Z,-3.52
2019-01-06T06:47:29.872Z,-3.57
2019-01-06T06:50:19.544Z,-3.57
2019-01-06T06:53:13.690Z,-3.57
2019-01-06T06:56:10.245Z,-3.56
2019-01-06T06:59:12.290Z,-3.57
2019-01-06T07:03:23.309Z,-3.54
2019-01-06T07:06:16.520Z,-3.52
2019-01-06T07:08:52.899Z,-3.55
2019-01-06T07:11:52.496Z,-3.51
2019-01-06T07:15:01.443Z,-3.51
2019-01-06T07:18:13.996Z,-3.47
2019-01-06T07:21:11.840Z,-3.40
2019-01-06T07:24:01.234Z,-3.20
2019-01-06T07:26:50.799Z,-2.85
2019-01-06T07:30:00.835Z,-2.58
2019-01-06T07:33:03.987Z,-2.35
2019-01-06T07:36:12.734Z,-2.18
2019-01-06T07:39:01.530Z,-2.01
2019-01-06T07:41:53.674Z,-1.85
2019-01-06T07:44:46.707Z,-1.69
2019-01-06T07:47:35.866Z,-1.56
2019-01-06T07:50:26.807Z,-1.42
2019-01-06T07:53:24.239Z,-1.29
2019-01-06T07:56:13.649Z,-1.15
2019-01-06T07:58:59.182Z,-0.94
2019-01-06T08:01:48.986Z,-0.75
2019-01-06T08:04:31.069Z,-0.65
2019-01-06T08:07:30.398Z,-0.53
2019-01-06T08:10:20.021Z,-0.12
2019-01-06T08:13:13.366Z,0.11
2019-01-06T08:16:08.452Z,0.94
2019-01-06T08:18:59.478Z,1.14
2019-01-06T08:22:02.235Z,1.38
2019-01-06T08:24:51.925Z,1.56
2019-01-06T08:27:43.194Z,2.24
2019-01-06T08:30:50.407Z,3.00
2019-01-06T08:33:40.731Z,4.28
2019-01-06T08:36:31.656Z,6.65
2019-01-06T08:39:16.761Z,7.94
2019-01-06T08:42:13.373Z,8.74
2019-01-06T08:45:02.537Z,8.91
2019-01-06T08:47:51.589Z,7.41
2019-01-06T08:50:45.058Z,7.16
2019-01-06T08:53:54.560Z,8.67
2019-01-06T08:56:45.184Z,9.11
2019-01-06T08:59:35.771Z,10.91
2019-01-06T09:02:25.127Z,10.75
2019-01-06T09:05:17.457Z,11.47
2019-01-06T09:08:08.080Z,12.53
2019-01-06T09:11:01.720Z,13.29
2019-01-06T09:13:52.283Z,13.99
2019-01-06T09:16:41.583Z,14.24
2019-01-06T09:19:50.210Z,14.56
2019-01-06T09:22:39.854Z,14.49
2019-01-06T09:25:30.436Z,14.73
2019-01-06T09:28:27.153Z,15.25
2019-01-06T09:31:28.116Z,15.37
2019-01-06T09:34:22.360Z,15.24
2019-01-06T09:37:13.274Z,14.87
2019-01-06T09:40:07.129Z,15.76
2019-01-06T09:43:07.134Z,16.12
2019-01-06T09:45:52.623Z,15.58
2019-01-06T09:48:42.091Z,15.87
2019-01-06T09:51:32.686Z,15.38
2019-01-06T09:54:41.848Z,15.68
2019-01-06T09:57:32.608Z,15.87
2019-01-06T10:00:21.854Z,16.72
2019-01-06T10:03:09.294Z,16.91
2019-01-06T10:06:03.182Z,15.53
2019-01-06T10:08:52.735Z,15.72
2019-01-06T10:11:44.027Z,15.83
2019-01-06T10:14:33.590Z,16.74
2019-01-06T10:17:22.776Z,16.99
2019-01-06T10:20:12.545Z,17.27
2019-01-06T10:23:02.219Z,18.45
2019-01-06T10:25:50.140Z,18.17
2019-01-06T10:28:56.681Z,18.07
2019-01-06T10:31:46.165Z,18.05
2019-01-06T10:34:42.895Z,18.58
2019-01-06T10:37:46.604Z,17.98
2019-01-06T10:40:41.133Z,17.33
2019-01-06T10:43:31.241Z,17.55
2019-01-06T10:46:34.862Z,18.34
2019-01-06T10:49:25.461Z,19.06
2019-01-06T10:52:12.683Z,17.97
2019-01-06T10:55:02.865Z,17.31
2019-01-06T10:58:06.189Z,16.08
2019-01-06T11:00:55.920Z,15.00
2019-01-06T11:03:45.446Z,15.62
2019-01-06T11:06:34.836Z,16.16
2019-01-06T11:09:17.734Z,16.80
2019-01-06T11:12:20.714Z,17.09
2019-01-06T11:15:20.298Z,16.71
2019-01-06T11:18:07.855Z,18.17
2019-01-06T11:20:57.200Z,18.93
2019-01-06T11:23:47.836Z,18.34
2019-01-06T11:26:57.379Z,17.99
2019-01-06T11:30:03.569Z,16.93
2019-01-06T11:32:54.031Z,17.62
2019-01-06T11:35:56.691Z,17.73
2019-01-06T11:38:46.173Z,17.26
2019-01-06T11:41:42.694Z,17.03
2019-01-06T11:44:42.922Z,17.31
2019-01-06T11:47:39.777Z,17.56
2019-01-06T11:50:30.456Z,17.89
2019-01-06T11:53:33.700Z,18.61
2019-01-06T11:56:30.955Z,19.39
2019-01-06T11:59:21.569Z,20.51
2019-01-06T12:02:15.876Z,21.03
2019-01-06T12:05:05.813Z,20.64
2019-01-06T12:07:58.567Z,20.25
2019-01-06T12:10:48.250Z,20.73
2019-01-06T12:13:42.444Z,21.44
2019-01-06T12:16:35.953Z,21.38
2019-01-06T12:19:33.695Z,19.94
2019-01-06T12:22:24.728Z,18.57
2019-01-06T12:25:18.168Z,19.05
2019-01-06T12:28:14.778Z,19.04
2019-01-06T12:31:11.519Z,19.69
2019-01-06T12:34:02.438Z,20.61
2019-01-06T12:37:02.444Z,21.05
2019-01-06T12:39:50.591Z,20.29
2019-01-06T12:42:56.785Z,20.32
2019-01-06T12:46:05.508Z,20.00
2019-01-06T12:49:11.044Z,19.12
2019-01-06T12:52:02.756Z,19.04
2019-01-06T12:54:52.112Z,18.84
2019-01-06T12:57:52.220Z,18.34
2019-01-06T13:00:54.880Z,17.45
2019-01-06T13:03:54.485Z,15.98
2019-01-06T13:06:43.528Z,16.11
2019-01-06T13:09:43.671Z,16.00
2019-01-06T13:12:37.917Z,15.78
2019-01-06T13:15:37.753Z,15.49
2019-01-06T13:18:27.799Z,15.69
2019-01-06T13:21:33.101Z,15.68
2019-01-06T13:24:32.924Z,15.77
2019-01-06T13:27:22.827Z,15.95
2019-01-06T13:30:12.090Z,16.24
2019-01-06T13:33:05.645Z,16.18
2019-01-06T13:35:59.199Z,16.53
2019-01-06T13:38:59.223Z,16.20
2019-01-06T13:41:55.625Z,15.16
2019-01-06T13:44:46.319Z,15.62
2019-01-06T13:47:44.071Z,15.96
2019-01-06T13:50:34.068Z,16.01
2019-01-06T13:53:23.993Z,15.97
2019-01-06T13:56:15.646Z,16.07
2019-01-06T13:59:06.457Z,15.19
2019-01-06T14:02:15.936Z,15.18
2019-01-06T14:05:22.653Z,15.44
2019-01-06T14:08:12.088Z,15.78
2019-01-06T14:11:09.739Z,15.51
2019-01-06T14:13:59.826Z,15.92
2019-01-06T14:16:49.796Z,15.92
2019-01-06T14:19:52.755Z,16.06
2019-01-06T14:22:42.250Z,16.05
2019-01-06T14:25:31.938Z,16.21
2019-01-06T14:28:35.486Z,16.34
2019-01-06T14:31:25.478Z,16.30
2019-01-06T14:34:18.921Z,15.97
2019-01-06T14:37:15.570Z,16.48
2019-01-06T14:40:09.625Z,16.68
2019-01-06T14:43:03.894Z,16.49
2019-01-06T14:46:09.608Z,16.12
2019-01-06T14:49:03.426Z,15.92
2019-01-06T14:52:07.010Z,15.95
2019-01-06T14:54:56.162Z,16.01
2019-01-06T14:57:45.231Z,15.83
2019-01-06T15:00:37.012Z,15.58
2019-01-06T15:03:32.441Z,15.47
2019-01-06T15:06:35.922Z,15.33
2019-01-06T15:09:39.180Z,15.07
2019-01-06T15:12:33.167Z,14.75
2019-01-06T15:15:27.942Z,14.41
2019-01-06T15:18:18.455Z,14.13
2019-01-06T15:21:24.488Z,13.84
2019-01-06T15:24:27.541Z,13.48
2019-01-06T15:27:24.502Z,13.13
2019-01-06T15:30:14.150Z,12.78
2019-01-06T15:33:20.924Z,12.26
2019-01-06T15:36:21.972Z,11.59
2019-01-06T15:39:12.535Z,10.53
2019-01-06T15:42:01.591Z,9.79
2019-01-06T15:44:55.495Z,9.23
2019-01-06T15:47:59.431Z,8.75
2019-01-06T15:50:56.713Z,8.35
2019-01-06T15:53:57.260Z,8.02
2019-01-06T15:56:50.994Z,7.75
2019-01-06T15:59:47.102Z,7.53
2019-01-06T16:02:54.002Z,7.33
2019-01-06T16:05:47.902Z,7.22
2019-01-06T16:08:42.886Z,7.03
2019-01-06T16:11:29.626Z,6.80
2019-01-06T16:14:41.705Z,6.54
2019-01-06T16:17:35.145Z,6.34
2019-01-06T16:20:42.733Z,6.14
2019-01-06T16:23:47.126Z,6.04
2019-01-06T16:26:39.833Z,5.88
2019-01-06T16:29:52.686Z,5.68
2019-01-06T16:32:51.423Z,5.49
2019-01-06T16:35:46.841Z,5.35
2019-01-06T16:38:55.611Z,5.36
2019-01-06T16:41:53.382Z,5.20
2019-01-06T16:44:43.876Z,5.04
2019-01-06T16:47:41.521Z,4.90
2019-01-06T16:50:32.426Z,4.74
2019-01-06T16:53:28.538Z,4.59
2019-01-06T16:56:20.667Z,4.44
2019-01-06T16:59:17.107Z,4.29
2019-01-06T17:02:28.166Z,4.15
2019-01-06T17:05:15.957Z,3.99
2019-01-06T17:08:13.027Z,3.83
2019-01-06T17:11:08.419Z,3.75
2019-01-06T17:14:03.866Z,3.88
2019-01-06T17:17:09.354Z,3.92
2019-01-06T17:20:09.190Z,3.99
2019-01-06T17:23:18.897Z,3.88
2019-01-06T17:26:13.574Z,3.70
2019-01-06T17:29:04.338Z,3.57
2019-01-06T17:32:01.078Z,3.39
2019-01-06T17:35:03.560Z,3.17
2019-01-06T17:38:07.837Z,2.91
2019-01-06T17:41:09.166Z,2.71
2019-01-06T17:44:13.767Z,2.52
2019-01-06T17:47:08.152Z,2.39
2019-01-06T17:50:01.982Z,2.28
2019-01-06T17:52:53.654Z,2.21
2019-01-06T17:56:00.289Z,2.17
2019-01-06T17:58:54.166Z,2.20
2019-01-06T18:01:45.909Z,2.20
2019-01-06T18:04:49.594Z,2.17
2019-01-06T18:07:50.293Z,2.10
2019-01-06T18:10:43.438Z,2.03
2019-01-06T18:13:43.972Z,1.94
2019-01-06T18:16:42.984Z,1.91
2019-01-06T18:19:35.473Z,1.82
2019-01-06T18:22:36.424Z,1.79
2019-01-06T18:25:28.845Z,1.62
2019-01-06T18:28:20.753Z,1.44
2019-01-06T18:31:15.060Z,1.37
2019-01-06T18:34:08.174Z,1.28
2019-01-06T18:37:03.362Z,1.19
2019-01-06T18:39:58.776Z,1.17
2019-01-06T18:42:55.298Z,1.16
2019-01-06T18:45:49.406Z,1.16
2019-01-06T18:48:39.493Z,1.12
2019-01-06T18:51:42.743Z,1.14
2019-01-06T18:54:35.278Z,1.07
2019-01-06T18:57:35.799Z,0.89
2019-01-06T19:00:28.785Z,0.81
2019-01-06T19:03:26.782Z,0.73
2019-01-06T19:06:20.466Z,0.51
2019-01-06T19:09:31.793Z,0.31
2019-01-06T19:12:26.608Z,0.25
2019-01-06T19:15:32.278Z,0.17
2019-01-06T19:18:33.546Z,0.12
2019-01-06T19:21:28.019Z,0.08
2019-01-06T19:24:15.410Z,0.06
2019-01-06T19:27:05.026Z,0.03
2019-01-06T19:30:00.450Z,0.00
2019-01-06T19:32:54.832Z,0.00
2019-01-06T19:36:00.817Z,0.02
2019-01-06T19:39:06.486Z,0.06
2019-01-06T19:42:05.472Z,0.06
2019-01-06T19:45:00.448Z,0.05
2019-01-06T19:48:13.528Z,0.09
2019-01-06T19:51:15.758Z,0.07
2019-01-06T19:54:07.336Z,0.03
2019-01-06T19:57:05.310Z,-0.08
2019-01-06T20:00:02.978Z,-0.20
2019-01-06T20:02:57.840Z,-0.33
2019-01-06T20:05:52.405Z,-0.50
2019-01-06T20:08:46.707Z,-0.65
2019-01-06T20:11:45.035Z,-0.76
2019-01-06T20:14:45.883Z,-0.85
2019-01-06T20:17:40.983Z,-0.88
2019-01-06T20:20:42.142Z,-0.91
2019-01-06T20:23:35.013Z,-0.92
2019-01-06T20:26:40.378Z,-0.93
2019-01-06T20:29:44.166Z,-0.98
2019-01-06T20:32:37.400Z,-1.06
2019-01-06T20:35:43.238Z,-1.12
2019-01-06T20:38:35.700Z,-1.20
2019-01-06T20:41:28.205Z,-1.30
2019-01-06T20:44:20.373Z,-1.36
2019-01-06T20:47:27.521Z,-1.40
2019-01-06T20:50:18.691Z,-1.45
2019-01-06T20:53:24.845Z,-1.49
2019-01-06T20:56:31.424Z,-1.55
2019-01-06T20:59:24.441Z,-1.62
2019-01-06T21:02:18.763Z,-1.68
2019-01-06T21:05:12.822Z,-1.76
2019-01-06T21:08:12.758Z,-1.82
2019-01-06T21:11:10.612Z,-1.76
2019-01-06T21:14:13.743Z,-1.70
2019-01-06T21:17:17.865Z,-1.65
2019-01-06T21:20:11.937Z,-1.64
2019-01-06T21:23:17.509Z,-1.60
2019-01-06T21:26:10.651Z,-1.61
2019-01-06T21:29:02.971Z,-1.68
2019-01-06T21:31:59.222Z,-1.74
2019-01-06T21:35:09.669Z,-1.82
2019-01-06T21:38:01.929Z,-1.89
2019-01-06T21:41:14.447Z,-1.96
2019-01-06T21:44:19.147Z,-1.99
2019-01-06T21:47:15.728Z,-2.04
2019-01-06T21:50:08.438Z,-2.00
2019-01-06T21:53:11.011Z,-1.87
2019-01-06T21:56:17.243Z,-1.82
2019-01-06T21:59:09.501Z,-1.82
2019-01-06T22:02:06.212Z,-1.93
2019-01-06T22:05:02.359Z,-1.97
2019-01-06T22:07:55.927Z,-2.03
2019-01-06T22:10:59.046Z,-2.09
2019-01-06T22:13:55.270Z,-2.05
2019-01-06T22:16:50.465Z,-2.09
2019-01-06T22:20:01.231Z,-2.15
2019-01-06T22:23:03.662Z,-2.22
2019-01-06T22:26:00.377Z,-2.32
2019-01-06T22:29:03.467Z,-2.36
2019-01-06T22:31:53.157Z,-2.35
2019-01-06T22:35:00.810Z,-2.30
2019-01-06T22:37:54.084Z,-2.25
2019-01-06T22:41:05.952Z,-2.23
2019-01-06T22:44:01.136Z,-2.20
2019-01-06T22:47:03.796Z,-2.18
2019-01-06T22:50:03.931Z,-2.22
2019-01-06T22:53:06.288Z,-2.25
2019-01-06T22:56:12.007Z,-2.17
2019-01-06T22:59:17.918Z,-2.11
2019-01-06T23:02:10.926Z,-2.12
2019-01-06T23:05:04.342Z,-2.08
2019-01-06T23:07:55.322Z,-1.99
2019-01-06T23:10:54.720Z,-1.95
2019-01-06T23:13:57.082Z,-1.91
2019-01-06T23:17:14.376Z,-1.92
2019-01-06T23:20:04.413Z,-1.88
2019-01-06T23:23:15.206Z,-1.84
2019-01-06T23:26:04.967Z,-1.84
2019-01-06T23:28:58.420Z,-1.83
2019-01-06T23:31:50.440Z,-1.82
2019-01-06T23:34:49.357Z,-1.82
2019-01-06T23:37:40.629Z,-1.82
2019-01-06T23:40:33.759Z,-1.79
2019-01-06T23:43:26.981Z,-1.80
2019-01-06T23:46:25.743Z,-1.82
2019-01-06T23:49:20.910Z,-1.85
2019-01-06T23:52:17.041Z,-1.83
2019-01-06T23:55:28.697Z,-1.80
2019-01-06T23:58:21.639Z,-1.77
